Terminal Aerodrome Forecast
Issued by NWS

Home | Current Version | Previous Version | Text Only | Print | Product List | Glossary On
Versions: 1 2 3 4 5 6 7 8 9 10 11 12 13 14
000
FTUS41 KBTV 251134
TAFPBG
TAF
KPBG 251134Z 2512/2612 VRB03KT P6SM SCT150 BKN250
     FM251500 14012KT P6SM BKN150 BKN200
     FM251800 15014G20KT P6SM VCSH OVC080
     FM260000 15009KT 6SM -SHRA OVC050
     FM260200 17009KT 4SM -SHRA BR OVC035=

USA.gov is the U.S. government's official web portal to all federal, state and local government web resources and services.